Airfield :
LOGIN :

Register | Disclaimer

   EN    FR    IT 

 










Legend :    VFR   Marginal VFR   IFR   Intensive IFR   Very Intensive IFR
Visi :
Ceiling :
>= 8 km
>= 3000ft
5 to 8 km
1000 to 3000 ft
1500m to 5 km
500 to 1000 ft
800 to 1500m
200 to 500 ft
< 800m
< 200 ft
Symbols :   Thunderstorms  Fog  Heavy snow  Heavy precipitations  Wind > 20 kt
SIGMETs :     Misc.  Thunderstorms  Icing  Turbulence  Mountain Waves  Volcanic Ashes







- Airport Elevation : 7 ft
- IATA code : ESH
- Download approach charts


EGKA - Shoreham

CURRENT METAR :
  • 241750Z 22005KT CAVOK 17/13 Q1017

EXPIRED METARs :
  • 241720Z 23006KT CAVOK 18/12 Q1017
  • 241650Z 24007KT CAVOK 17/11 Q1017
  • 241620Z 24011KT CAVOK 18/11 Q1017
  • 241550Z 24013KT CAVOK 18/10 Q1017
  • 241520Z 23010KT CAVOK 18/11 Q1017

TAF TAF EGKA
Valid from the 24 at 15:00 until the 24 at 19:00 UTC


241401Z 2415/2419 23010KT 9999 FEW045
PROB30
TEMPO 2415/2418 6000 SHRA
PROB30
TEMPO 2418/2419 4000 +SHRA
ATIS : +44 1273 467 372
No reported NOTAMs for that airfield.



MET'MAP, your aeronautical weather chart ! - Copyright ORBIFLY December 2007 - Disclaimer

ORBIFLY MET'MAP TEAM :

Programming & Development : Alexandra Zaïnal
Concept & Development : Baudouin d'Aumeries
Co-Development & Prog : Marc-Olivier Méhu
Technical & hardware support : Manuel Goepfert

Contact : metmap@orbifly.com




SOURCES & CREDITS :

   NOAA